createdAt,value
2017-12-03T00:01:47.394Z,42.50
2017-12-03T00:04:15.552Z,42.00
2017-12-03T00:06:44.658Z,42.00
2017-12-03T00:09:13.685Z,40.50
2017-12-03T00:11:41.854Z,40.50
2017-12-03T00:14:10.009Z,42.50
2017-12-03T00:16:39.031Z,42.70
2017-12-03T00:19:20.161Z,42.70
2017-12-03T00:21:48.326Z,42.10
2017-12-03T00:24:16.539Z,43.70
2017-12-03T00:26:44.678Z,43.60
2017-12-03T00:29:16.785Z,42.20
2017-12-03T00:31:49.362Z,41.60
2017-12-03T00:34:17.545Z,44.40
2017-12-03T00:36:46.310Z,42.70
2017-12-03T00:39:22.469Z,43.10
2017-12-03T00:41:51.380Z,44.30
2017-12-03T00:44:26.996Z,44.30
2017-12-03T00:46:55.169Z,43.10
2017-12-03T00:49:27.024Z,43.10
2017-12-03T00:51:57.601Z,42.10
2017-12-03T00:54:25.784Z,41.50
2017-12-03T00:56:53.933Z,41.40
2017-12-03T00:59:25.385Z,42.40
2017-12-03T01:01:53.549Z,42.20
2017-12-03T01:04:22.580Z,43.20
2017-12-03T01:06:50.726Z,43.20
2017-12-03T01:09:19.169Z,42.80
2017-12-03T01:11:47.380Z,42.00
2017-12-03T01:14:15.540Z,42.60
2017-12-03T01:16:45.505Z,42.50
2017-12-03T01:19:17.974Z,42.60
2017-12-03T01:21:46.225Z,42.30
2017-12-03T01:24:14.398Z,42.80
2017-12-03T01:26:42.559Z,42.30
2017-12-03T01:29:11.135Z,41.20
2017-12-03T01:31:39.286Z,41.50
2017-12-03T01:34:07.458Z,41.80
2017-12-03T01:36:35.609Z,43.30
2017-12-03T01:39:07.224Z,44.40
2017-12-03T01:41:35.496Z,43.50
2017-12-03T01:44:03.648Z,40.50
2017-12-03T01:46:31.867Z,42.90
2017-12-03T01:49:00.136Z,41.80
2017-12-03T01:51:28.300Z,40.70
2017-12-03T01:53:56.461Z,41.20
2017-12-03T01:56:24.719Z,41.70
2017-12-03T01:58:56.118Z,41.50
2017-12-03T02:01:30.607Z,42.40
2017-12-03T02:03:58.761Z,42.80
2017-12-03T02:06:27.914Z,41.70
2017-12-03T02:08:56.205Z,42.40
2017-12-03T02:11:24.381Z,42.00
2017-12-03T02:13:52.773Z,41.50
2017-12-03T02:16:20.930Z,42.30
2017-12-03T02:18:49.114Z,42.30
2017-12-03T02:21:17.286Z,41.10
2017-12-03T02:23:45.454Z,41.10
2017-12-03T02:26:13.624Z,43.10
2017-12-03T02:28:44.843Z,44.40
2017-12-03T02:31:13.125Z,43.10
2017-12-03T02:33:41.409Z,42.70
2017-12-03T02:36:09.662Z,42.50
2017-12-03T02:38:38.302Z,41.90
2017-12-03T02:41:06.450Z,41.70
2017-12-03T02:43:34.609Z,42.50
2017-12-03T02:46:03.630Z,41.90
2017-12-03T02:48:31.880Z,42.30
2017-12-03T02:51:00.043Z,42.50
2017-12-03T02:53:28.959Z,43.80
2017-12-03T02:55:57.141Z,43.80
2017-12-03T02:58:25.395Z,42.50
2017-12-03T03:00:53.574Z,42.50
2017-12-03T03:03:21.743Z,43.10
2017-12-03T03:05:49.963Z,42.50
2017-12-03T03:08:26.571Z,41.50
2017-12-03T03:10:55.580Z,43.50
2017-12-03T03:13:23.751Z,43.60
2017-12-03T03:15:51.936Z,44.40
2017-12-03T03:18:20.196Z,46.00
2017-12-03T03:20:48.345Z,47.40
2017-12-03T03:23:16.503Z,48.70
2017-12-03T03:25:44.643Z,48.80
2017-12-03T03:28:15.993Z,49.50
2017-12-03T03:30:44.168Z,49.60
2017-12-03T03:33:15.609Z,49.20
2017-12-03T03:35:43.770Z,50.00
2017-12-03T03:38:23.081Z,48.10
2017-12-03T03:40:57.704Z,47.10
2017-12-03T03:43:25.858Z,46.90
2017-12-03T03:45:57.877Z,45.70
2017-12-03T03:48:34.215Z,47.70
2017-12-03T03:51:09.184Z,51.60
2017-12-03T03:53:37.343Z,51.60
2017-12-03T03:56:15.444Z,52.50
2017-12-03T03:58:48.352Z,54.30
2017-12-03T04:01:16.508Z,54.10
2017-12-03T04:03:44.706Z,51.60
2017-12-03T04:06:12.849Z,49.40
2017-12-03T04:08:41.019Z,51.50
2017-12-03T04:11:09.958Z,50.20
2017-12-03T04:13:38.106Z,50.20
2017-12-03T04:16:06.313Z,50.80
2017-12-03T04:18:34.567Z,49.40
2017-12-03T04:21:02.739Z,49.70
2017-12-03T04:23:30.906Z,48.90
2017-12-03T04:25:59.110Z,49.10
2017-12-03T04:28:28.277Z,47.10
2017-12-03T04:30:56.438Z,47.30
2017-12-03T04:33:24.592Z,47.60
2017-12-03T04:35:53.522Z,48.00
2017-12-03T04:38:21.784Z,48.00
2017-12-03T04:40:49.968Z,46.60
2017-12-03T04:43:18.130Z,48.50
2017-12-03T04:45:46.285Z,44.50
2017-12-03T04:48:15.295Z,48.80
2017-12-03T04:50:43.447Z,48.80
2017-12-03T04:53:12.406Z,47.50
2017-12-03T04:55:40.574Z,47.40
2017-12-03T04:58:08.837Z,46.90
2017-12-03T05:00:36.999Z,47.50
2017-12-03T05:03:05.170Z,48.20
2017-12-03T05:05:33.347Z,48.30
2017-12-03T05:08:07.944Z,47.00
2017-12-03T05:10:36.857Z,45.00
2017-12-03T05:13:05.038Z,44.90
2017-12-03T05:15:33.206Z,45.70
2017-12-03T05:18:02.414Z,45.80
2017-12-03T05:20:30.597Z,46.80
2017-12-03T05:22:59.533Z,45.90
2017-12-03T05:25:27.696Z,45.80
2017-12-03T05:27:56.018Z,45.30
2017-12-03T05:30:25.015Z,45.20
2017-12-03T05:32:54.399Z,45.90
2017-12-03T05:35:23.696Z,46.10
2017-12-03T05:37:52.726Z,49.00
2017-12-03T05:40:20.872Z,49.00
2017-12-03T05:42:49.781Z,47.70
2017-12-03T05:45:17.945Z,47.80
2017-12-03T05:47:51.568Z,45.20
2017-12-03T05:50:19.757Z,43.70
2017-12-03T05:52:47.918Z,41.30
2017-12-03T05:55:16.104Z,42.10
2017-12-03T05:57:44.336Z,43.00
2017-12-03T06:00:21.799Z,44.70
2017-12-03T06:02:49.964Z,44.50
2017-12-03T06:05:19.038Z,44.60
2017-12-03T06:07:52.258Z,44.00
2017-12-03T06:10:20.422Z,47.20
2017-12-03T06:15:47.870Z,45.00
2017-12-03T06:18:16.123Z,45.50
2017-12-03T06:20:44.308Z,47.10
2017-12-03T06:23:12.523Z,44.20
2017-12-03T06:25:40.714Z,45.90
2017-12-03T06:28:09.860Z,46.90
2017-12-03T06:30:38.046Z,44.30
2017-12-03T06:33:06.207Z,43.30
2017-12-03T06:35:34.402Z,46.80
2017-12-03T06:38:02.577Z,44.20
2017-12-03T06:40:31.600Z,43.80
2017-12-03T06:43:00.631Z,42.20
2017-12-03T06:45:30.465Z,41.00
2017-12-03T06:47:58.803Z,41.00
2017-12-03T06:50:27.749Z,43.50
2017-12-03T06:52:55.945Z,43.50
2017-12-03T06:55:24.133Z,43.20
2017-12-03T06:57:55.518Z,42.80
2017-12-03T07:00:26.870Z,42.60
2017-12-03T07:02:55.115Z,41.80
2017-12-03T07:05:23.416Z,41.80
2017-12-03T07:07:52.130Z,40.50
2017-12-03T07:10:20.349Z,39.40
2017-12-03T07:12:48.556Z,41.00
2017-12-03T07:15:16.721Z,40.90
2017-12-03T07:17:45.119Z,41.60
2017-12-03T07:20:13.280Z,42.00
2017-12-03T07:22:42.080Z,44.20
2017-12-03T07:25:10.237Z,45.50
2017-12-03T07:27:38.517Z,44.70
2017-12-03T07:30:06.689Z,44.10
2017-12-03T07:32:34.869Z,44.70
2017-12-03T07:35:03.038Z,41.70
2017-12-03T07:37:31.236Z,43.50
2017-12-03T07:39:59.673Z,43.40
2017-12-03T07:42:27.853Z,41.80
2017-12-03T07:44:56.783Z,40.80
2017-12-03T07:47:24.961Z,40.80
2017-12-03T07:49:53.109Z,42.20
2017-12-03T07:52:21.390Z,43.40
2017-12-03T07:54:49.570Z,42.60
2017-12-03T07:57:17.732Z,44.10
2017-12-03T07:59:45.924Z,42.50
2017-12-03T08:02:14.367Z,40.10
2017-12-03T08:04:43.311Z,42.60
2017-12-03T08:07:12.249Z,42.60
2017-12-03T08:09:41.219Z,41.00
2017-12-03T08:12:09.374Z,40.90
2017-12-03T08:14:37.564Z,42.00
2017-12-03T08:17:06.578Z,41.20
2017-12-03T08:19:41.612Z,40.60
2017-12-03T08:22:10.631Z,40.10
2017-12-03T08:24:40.015Z,39.40
2017-12-03T08:27:08.164Z,40.10
2017-12-03T08:29:40.057Z,37.20
2017-12-03T08:32:09.823Z,36.50
2017-12-03T08:34:38.638Z,36.50
2017-12-03T08:37:06.786Z,37.20
2017-12-03T08:39:34.965Z,36.60
2017-12-03T08:42:03.121Z,35.80
2017-12-03T08:44:31.285Z,35.80
2017-12-03T08:46:59.448Z,34.00
2017-12-03T08:49:30.572Z,35.30
2017-12-03T08:51:58.736Z,34.80
2017-12-03T08:54:26.932Z,34.50
2017-12-03T08:56:56.242Z,35.90
2017-12-03T08:59:25.468Z,35.90
2017-12-03T09:01:53.638Z,36.10
2017-12-03T09:04:21.845Z,35.50
2017-12-03T09:06:50.090Z,34.00
2017-12-03T09:09:20.540Z,34.50
2017-12-03T09:11:48.701Z,35.90
2017-12-03T09:14:17.022Z,37.10
2017-12-03T09:16:45.207Z,37.40
2017-12-03T09:19:15.264Z,35.50
2017-12-03T09:21:43.429Z,34.60
2017-12-03T09:24:11.609Z,36.50
2017-12-03T09:26:39.772Z,35.00
2017-12-03T09:29:11.314Z,35.20
2017-12-03T09:31:40.496Z,35.40
2017-12-03T09:34:08.662Z,35.30
2017-12-03T09:36:37.596Z,36.80
2017-12-03T09:39:06.428Z,36.80
2017-12-03T09:41:35.394Z,36.60
2017-12-03T09:44:03.575Z,37.00
2017-12-03T09:46:31.758Z,34.00
2017-12-03T09:49:00.001Z,34.50
2017-12-03T09:51:28.156Z,35.90
2017-12-03T09:53:56.330Z,36.10
2017-12-03T09:56:24.509Z,34.50
2017-12-03T09:58:55.751Z,33.10
2017-12-03T10:01:23.928Z,33.80
2017-12-03T10:03:58.768Z,35.60
2017-12-03T10:06:27.226Z,34.50
2017-12-03T10:08:56.245Z,35.00
2017-12-03T10:11:24.416Z,35.00
2017-12-03T10:13:52.587Z,35.60
2017-12-03T10:16:20.768Z,34.40
2017-12-03T10:18:49.938Z,35.30
2017-12-03T10:21:18.112Z,36.40
2017-12-03T10:23:46.326Z,36.00
2017-12-03T10:26:14.723Z,36.00
2017-12-03T10:28:44.710Z,34.10
2017-12-03T10:31:12.870Z,34.00
2017-12-03T10:33:41.029Z,36.20
2017-12-03T10:36:09.204Z,35.00
2017-12-03T10:38:40.223Z,33.40
2017-12-03T10:41:09.946Z,34.00
2017-12-03T10:43:44.461Z,33.40
2017-12-03T10:46:14.237Z,35.40
2017-12-03T10:48:43.918Z,35.30
2017-12-03T10:51:12.101Z,35.10
2017-12-03T10:53:40.404Z,34.80
2017-12-03T10:56:08.773Z,36.80
2017-12-03T10:58:36.953Z,33.90
2017-12-03T11:01:05.178Z,33.30
2017-12-03T11:03:33.326Z,33.50
2017-12-03T11:06:02.389Z,34.50
2017-12-03T11:08:30.619Z,34.40
2017-12-03T11:10:58.787Z,33.30
2017-12-03T11:13:27.706Z,35.10
2017-12-03T11:15:55.873Z,35.00
2017-12-03T11:18:24.163Z,35.50
2017-12-03T11:20:52.296Z,36.20
2017-12-03T11:23:20.470Z,36.80
2017-12-03T11:25:49.427Z,36.50
2017-12-03T11:28:17.702Z,36.50
2017-12-03T11:30:45.884Z,38.10
2017-12-03T11:33:14.340Z,35.30
2017-12-03T11:35:43.288Z,37.80
2017-12-03T11:38:11.597Z,37.90
2017-12-03T11:40:40.622Z,37.50
2017-12-03T11:43:08.847Z,37.60
2017-12-03T11:45:37.069Z,35.00
2017-12-03T11:48:08.869Z,34.60
2017-12-03T11:50:37.810Z,35.60
2017-12-03T11:53:09.220Z,35.70
2017-12-03T11:55:38.398Z,34.40
2017-12-03T11:58:07.886Z,36.90
2017-12-03T12:00:36.071Z,36.40
2017-12-03T12:03:04.245Z,37.10
2017-12-03T12:05:33.182Z,37.20
2017-12-03T12:08:03.624Z,37.20
2017-12-03T12:10:32.062Z,37.10
2017-12-03T12:13:01.006Z,37.70
2017-12-03T12:15:29.177Z,35.70
2017-12-03T12:17:57.749Z,37.00
2017-12-03T12:20:26.668Z,37.40
2017-12-03T12:22:55.738Z,38.10
2017-12-03T12:25:23.908Z,38.80
2017-12-03T12:27:52.896Z,38.10
2017-12-03T12:30:22.041Z,38.80
2017-12-03T12:32:50.190Z,40.20
2017-12-03T12:35:18.344Z,39.50
2017-12-03T12:37:46.612Z,40.20
2017-12-03T12:40:14.787Z,40.20
2017-12-03T12:42:42.955Z,37.90
2017-12-03T12:45:11.142Z,38.20
2017-12-03T12:47:39.878Z,37.70
2017-12-03T12:50:08.044Z,37.60
2017-12-03T12:52:36.213Z,38.40
2017-12-03T12:55:04.369Z,39.30
2017-12-03T12:57:33.023Z,38.00
2017-12-03T13:00:01.187Z,38.40
2017-12-03T13:02:30.084Z,39.20
2017-12-03T13:04:58.662Z,38.20
2017-12-03T13:07:26.854Z,39.60
2017-12-03T13:09:55.012Z,38.80
2017-12-03T13:12:23.176Z,39.30
2017-12-03T13:14:52.920Z,39.20
2017-12-03T13:17:21.697Z,39.20
2017-12-03T13:19:49.871Z,39.20
2017-12-03T13:22:19.422Z,39.30
2017-12-03T13:24:48.085Z,39.70
2017-12-03T13:27:16.242Z,41.10
2017-12-03T13:29:44.403Z,40.70
2017-12-03T13:32:12.571Z,40.60
2017-12-03T13:34:41.955Z,39.40
2017-12-03T13:37:10.862Z,42.20
2017-12-03T13:39:39.121Z,41.40
2017-12-03T13:42:08.911Z,41.70
2017-12-03T13:44:38.254Z,41.70
2017-12-03T13:47:08.499Z,41.70
2017-12-03T13:49:38.573Z,41.70
2017-12-03T13:52:08.502Z,45.80
2017-12-03T13:54:37.461Z,45.40
2017-12-03T13:57:05.634Z,45.50
2017-12-03T13:59:35.123Z,46.40
2017-12-03T14:02:03.613Z,48.50
2017-12-03T14:04:31.886Z,47.40
2017-12-03T14:07:00.065Z,50.50
2017-12-03T14:09:28.413Z,49.30
2017-12-03T14:11:56.576Z,49.60
2017-12-03T14:14:24.751Z,49.60
2017-12-03T14:16:52.924Z,52.80
2017-12-03T14:19:21.521Z,52.50
2017-12-03T14:21:49.868Z,55.40
2017-12-03T14:24:18.887Z,54.50
2017-12-03T14:26:47.059Z,54.50
2017-12-03T14:29:15.628Z,57.80
2017-12-03T14:31:43.797Z,56.20
2017-12-03T14:34:12.729Z,55.70
2017-12-03T14:36:41.673Z,55.70
2017-12-03T14:39:10.880Z,57.30
2017-12-03T14:41:39.042Z,59.10
2017-12-03T14:44:07.210Z,56.50
2017-12-03T14:46:36.159Z,59.60
2017-12-03T14:49:04.329Z,59.60
2017-12-03T14:51:32.518Z,60.10
2017-12-03T14:54:01.247Z,61.10
2017-12-03T14:56:29.450Z,59.50
2017-12-03T14:58:57.652Z,57.60
2017-12-03T15:01:25.803Z,60.00
2017-12-03T15:03:54.778Z,60.50
2017-12-03T15:06:22.930Z,63.60
2017-12-03T15:08:51.976Z,61.90
2017-12-03T15:11:20.132Z,61.90
2017-12-03T15:13:48.310Z,60.00
2017-12-03T15:16:17.244Z,60.20
2017-12-03T15:18:45.458Z,63.20
2017-12-03T15:21:14.622Z,61.00
2017-12-03T15:23:42.788Z,60.50
2017-12-03T15:28:17.673Z,63.80
2017-12-03T15:30:45.829Z,63.90
2017-12-03T15:33:14.752Z,64.00
2017-12-03T15:35:42.926Z,64.10
2017-12-03T15:38:11.176Z,63.60
2017-12-03T15:40:39.403Z,63.90
2017-12-03T15:43:07.568Z,63.30
2017-12-03T15:45:36.130Z,64.00
2017-12-03T15:48:04.307Z,66.30
2017-12-03T15:50:32.493Z,66.10
2017-12-03T15:53:00.653Z,65.90
2017-12-03T15:55:28.811Z,66.00
2017-12-03T15:57:57.834Z,65.40
2017-12-03T16:00:25.997Z,65.30
2017-12-03T16:02:54.163Z,67.00
2017-12-03T16:05:22.339Z,67.30
2017-12-03T16:07:50.494Z,65.70
2017-12-03T16:10:18.681Z,66.30
2017-12-03T16:12:47.626Z,66.70
2017-12-03T16:15:15.815Z,66.80
2017-12-03T16:17:44.031Z,65.60
2017-12-03T16:20:12.196Z,67.90
2017-12-03T16:22:40.352Z,64.80
2017-12-03T16:25:09.280Z,66.30
2017-12-03T16:27:37.561Z,66.20
2017-12-03T16:30:05.715Z,66.10
2017-12-03T16:32:33.905Z,68.50
2017-12-03T16:35:02.993Z,70.00
2017-12-03T16:37:31.221Z,70.30
2017-12-03T16:39:59.387Z,69.80
2017-12-03T16:42:27.558Z,70.70
2017-12-03T16:44:55.738Z,70.80
2017-12-03T16:47:24.625Z,70.40
2017-12-03T16:49:52.766Z,68.80
2017-12-03T16:52:20.921Z,69.10
2017-12-03T16:54:49.102Z,70.70
2017-12-03T16:57:17.264Z,71.30
2017-12-03T16:59:45.483Z,73.20
2017-12-03T17:02:13.804Z,71.30
2017-12-03T17:04:41.949Z,70.80
2017-12-03T17:07:10.965Z,68.60
2017-12-03T17:09:39.276Z,71.30
2017-12-03T17:12:07.448Z,74.30
2017-12-03T17:14:35.613Z,71.70
2017-12-03T17:17:03.769Z,73.10
2017-12-03T17:19:32.795Z,73.90
2017-12-03T17:22:00.993Z,73.80
2017-12-03T17:24:29.174Z,73.50
2017-12-03T17:26:57.439Z,71.60
2017-12-03T17:29:25.733Z,73.60
2017-12-03T17:31:54.023Z,73.70
2017-12-03T17:34:22.200Z,76.10
2017-12-03T17:36:50.800Z,74.20
2017-12-03T17:39:19.974Z,73.80
2017-12-03T17:41:48.133Z,73.80
2017-12-03T17:44:16.312Z,74.80
2017-12-03T17:46:44.530Z,70.80
2017-12-03T17:49:15.323Z,73.10
2017-12-03T17:51:43.542Z,73.20
2017-12-03T17:54:12.463Z,69.40
2017-12-03T17:56:41.412Z,70.20
2017-12-03T17:59:11.375Z,69.10
2017-12-03T18:01:39.533Z,69.10
2017-12-03T18:04:08.467Z,71.30
2017-12-03T18:06:36.632Z,71.40
2017-12-03T18:09:04.858Z,73.40
2017-12-03T18:11:34.168Z,73.30
2017-12-03T18:14:02.334Z,71.80
2017-12-03T18:16:30.502Z,72.30
2017-12-03T18:18:58.780Z,74.20
2017-12-03T18:21:26.942Z,74.20
2017-12-03T18:23:55.886Z,73.00
2017-12-03T18:26:24.033Z,73.00
2017-12-03T18:28:52.309Z,73.60
2017-12-03T18:31:20.476Z,73.70
2017-12-03T18:33:48.643Z,72.70
2017-12-03T18:36:16.804Z,71.60
2017-12-03T18:38:45.844Z,74.10
2017-12-03T18:41:13.997Z,74.00
2017-12-03T18:43:42.932Z,74.00
2017-12-03T18:46:11.110Z,72.10
2017-12-03T18:48:39.360Z,73.20
2017-12-03T18:51:07.526Z,75.10
2017-12-03T18:53:35.703Z,75.70
2017-12-03T18:56:03.869Z,77.10
2017-12-03T18:58:32.856Z,77.90
2017-12-03T19:01:01.067Z,77.90
2017-12-03T19:03:29.400Z,76.40
2017-12-03T19:05:59.040Z,74.60
2017-12-03T19:08:27.224Z,74.60
2017-12-03T19:10:55.394Z,73.10
2017-12-03T19:13:24.723Z,74.10
2017-12-03T19:15:52.901Z,74.10
2017-12-03T19:18:26.533Z,75.10
2017-12-03T19:21:03.623Z,76.40
2017-12-03T19:23:31.783Z,76.50
2017-12-03T19:26:00.431Z,77.50
2017-12-03T19:28:28.596Z,75.30
2017-12-03T19:30:56.757Z,72.40
2017-12-03T19:33:24.935Z,74.10
2017-12-03T19:35:53.089Z,75.10
2017-12-03T19:38:21.242Z,75.20
2017-12-03T19:40:49.417Z,75.80
2017-12-03T19:43:18.328Z,75.30
2017-12-03T19:45:46.511Z,75.30
2017-12-03T19:48:16.603Z,75.40
2017-12-03T19:50:44.770Z,72.60
2017-12-03T19:53:12.951Z,74.40
2017-12-03T19:55:41.123Z,75.10
2017-12-03T19:58:09.298Z,75.30
2017-12-03T20:00:38.287Z,76.00
2017-12-03T20:03:07.198Z,75.20
2017-12-03T20:05:35.956Z,75.20
2017-12-03T20:08:09.137Z,79.00
2017-12-03T20:10:38.273Z,79.00
2017-12-03T20:13:06.450Z,75.20
2017-12-03T20:15:34.609Z,75.30
2017-12-03T20:18:02.886Z,76.40
2017-12-03T20:20:31.086Z,72.70
2017-12-03T20:22:59.250Z,74.10
2017-12-03T20:25:27.450Z,72.30
2017-12-03T20:27:57.646Z,73.50
2017-12-03T20:30:25.829Z,73.80
2017-12-03T20:32:53.996Z,75.00
2017-12-03T20:35:22.177Z,74.50
2017-12-03T20:37:52.231Z,73.30
2017-12-03T20:40:20.393Z,73.30
2017-12-03T20:42:49.356Z,72.80
2017-12-03T20:45:17.562Z,72.80
2017-12-03T20:47:46.734Z,74.50
2017-12-03T20:50:15.409Z,72.40
2017-12-03T20:52:43.583Z,74.60
2017-12-03T20:55:11.966Z,72.70
2017-12-03T20:57:40.245Z,74.30
2017-12-03T21:00:08.428Z,73.00
2017-12-03T21:02:36.672Z,70.40
2017-12-03T21:05:04.857Z,73.00
2017-12-03T21:07:34.057Z,73.40
2017-12-03T21:12:36.569Z,71.80
2017-12-03T21:15:04.734Z,71.40
2017-12-03T21:17:33.354Z,74.00
2017-12-03T21:20:01.516Z,72.40
2017-12-03T21:22:29.667Z,71.90
2017-12-03T21:24:57.832Z,73.70
2017-12-03T21:27:26.006Z,71.40
2017-12-03T21:29:54.165Z,72.10
2017-12-03T21:32:23.732Z,75.50
2017-12-03T21:34:51.947Z,73.70
2017-12-03T21:37:20.104Z,74.60
2017-12-03T21:39:49.020Z,72.90
2017-12-03T21:42:17.958Z,73.30
2017-12-03T21:44:46.106Z,73.30
2017-12-03T21:47:14.346Z,72.20
2017-12-03T21:49:44.186Z,72.40
2017-12-03T21:52:12.374Z,72.50
2017-12-03T21:54:40.541Z,73.20
2017-12-03T21:57:10.250Z,74.20
2017-12-03T21:59:41.895Z,74.30
2017-12-03T22:02:11.657Z,71.90
2017-12-03T22:04:42.112Z,73.80
2017-12-03T22:07:10.266Z,75.80
2017-12-03T22:09:38.471Z,74.40
2017-12-03T22:12:06.645Z,74.20
2017-12-03T22:14:36.158Z,73.30
2017-12-03T22:17:04.586Z,75.80
2017-12-03T22:19:32.809Z,75.80
2017-12-03T22:22:00.965Z,75.70
2017-12-03T22:24:29.898Z,73.30
2017-12-03T22:26:58.057Z,73.30
2017-12-03T22:29:26.327Z,74.10
2017-12-03T22:31:54.501Z,74.50
2017-12-03T22:34:22.678Z,73.60
2017-12-03T22:36:50.854Z,75.10
2017-12-03T22:39:24.343Z,74.30
2017-12-03T22:41:52.518Z,73.80
2017-12-03T22:44:21.721Z,71.20
2017-12-03T22:46:49.876Z,74.10
2017-12-03T22:49:18.884Z,75.40
2017-12-03T22:51:47.042Z,75.30
2017-12-03T22:54:15.973Z,74.00
2017-12-03T22:56:44.132Z,74.00
2017-12-03T22:59:12.961Z,73.50
2017-12-03T23:01:41.119Z,73.40
2017-12-03T23:04:09.280Z,74.00
2017-12-03T23:06:37.443Z,74.80
2017-12-03T23:09:05.702Z,75.00
2017-12-03T23:11:33.858Z,73.80
2017-12-03T23:14:02.016Z,74.40
2017-12-03T23:16:30.162Z,73.00
2017-12-03T23:18:58.417Z,73.50
2017-12-03T23:21:27.162Z,73.50
2017-12-03T23:23:57.014Z,72.20
2017-12-03T23:26:25.186Z,71.90
2017-12-03T23:28:56.863Z,72.90
2017-12-03T23:31:25.009Z,73.10
2017-12-03T23:33:55.237Z,74.70
2017-12-03T23:36:23.712Z,73.70
2017-12-03T23:38:52.790Z,72.80
2017-12-03T23:41:20.952Z,75.10
2017-12-03T23:43:49.152Z,72.80
2017-12-03T23:46:17.319Z,74.90
2017-12-03T23:48:45.505Z,75.60
2017-12-03T23:51:13.748Z,74.00
2017-12-03T23:53:42.667Z,75.40
2017-12-03T23:56:10.841Z,76.00
2017-12-03T23:58:39.708Z,75.80
